sensor_id;sensor_type;location;lat;lon;timestamp;P1;durP1;ratioP1;P2;durP2;ratioP2
19551;SDS011;9921;47.186;9.778;2023-07-16T00:00:39;0.10;;;0.10;;
19551;SDS011;9921;47.186;9.778;2023-07-16T00:03:07;0.10;;;0.10;;
19551;SDS011;9921;47.186;9.778;2023-07-16T00:05:34;0.10;;;0.10;;
19551;SDS011;9921;47.186;9.778;2023-07-16T00:08:03;0.10;;;0.10;;
19551;SDS011;9921;47.186;9.778;2023-07-16T00:10:30;0.10;;;0.10;;
19551;SDS011;9921;47.186;9.778;2023-07-16T00:13:00;0.10;;;0.10;;
19551;SDS011;9921;47.186;9.778;2023-07-16T00:15:27;0.10;;;0.10;;
19551;SDS011;9921;47.186;9.778;2023-07-16T00:17:54;0.10;;;0.10;;
19551;SDS011;9921;47.186;9.778;2023-07-16T00:20:23;0.10;;;0.10;;
19551;SDS011;9921;47.186;9.778;2023-07-16T00:22:49;0.00;;;0.00;;
19551;SDS011;9921;47.186;9.778;2023-07-16T00:25:16;0.08;;;0.08;;
19551;SDS011;9921;47.186;9.778;2023-07-16T00:27:43;0.00;;;0.00;;
19551;SDS011;9921;47.186;9.778;2023-07-16T00:30:10;0.10;;;0.10;;
19551;SDS011;9921;47.186;9.778;2023-07-16T00:32:38;0.10;;;0.10;;
19551;SDS011;9921;47.186;9.778;2023-07-16T00:35:05;0.10;;;0.10;;
19551;SDS011;9921;47.186;9.778;2023-07-16T00:37:34;0.10;;;0.10;;
19551;SDS011;9921;47.186;9.778;2023-07-16T00:40:01;0.10;;;0.10;;
19551;SDS011;9921;47.186;9.778;2023-07-16T00:42:29;0.10;;;0.10;;
19551;SDS011;9921;47.186;9.778;2023-07-16T00:44:56;0.10;;;0.10;;
19551;SDS011;9921;47.186;9.778;2023-07-16T00:47:22;0.10;;;0.10;;
19551;SDS011;9921;47.186;9.778;2023-07-16T00:49:49;0.10;;;0.10;;
19551;SDS011;9921;47.186;9.778;2023-07-16T00:52:18;0.10;;;0.10;;
19551;SDS011;9921;47.186;9.778;2023-07-16T00:54:48;0.08;;;0.08;;
19551;SDS011;9921;47.186;9.778;2023-07-16T00:57:15;0.00;;;0.00;;
19551;SDS011;9921;47.186;9.778;2023-07-16T00:59:42;0.10;;;0.10;;
19551;SDS011;9921;47.186;9.778;2023-07-16T01:02:09;0.10;;;0.10;;
19551;SDS011;9921;47.186;9.778;2023-07-16T01:04:36;0.10;;;0.10;;
19551;SDS011;9921;47.186;9.778;2023-07-16T01:07:04;0.00;;;0.00;;
19551;SDS011;9921;47.186;9.778;2023-07-16T01:09:34;0.00;;;0.00;;
19551;SDS011;9921;47.186;9.778;2023-07-16T01:12:07;0.10;;;0.10;;
19551;SDS011;9921;47.186;9.778;2023-07-16T01:14:35;0.10;;;0.10;;
19551;SDS011;9921;47.186;9.778;2023-07-16T01:17:02;0.10;;;0.10;;
19551;SDS011;9921;47.186;9.778;2023-07-16T01:19:30;0.00;;;0.00;;
19551;SDS011;9921;47.186;9.778;2023-07-16T01:22:07;0.00;;;0.00;;
19551;SDS011;9921;47.186;9.778;2023-07-16T01:24:52;0.00;;;0.00;;
19551;SDS011;9921;47.186;9.778;2023-07-16T01:27:34;0.00;;;0.00;;
19551;SDS011;9921;47.186;9.778;2023-07-16T01:30:16;0.10;;;0.10;;
19551;SDS011;9921;47.186;9.778;2023-07-16T01:32:45;0.10;;;0.10;;
19551;SDS011;9921;47.186;9.778;2023-07-16T01:35:12;0.03;;;0.03;;
19551;SDS011;9921;47.186;9.778;2023-07-16T01:37:41;0.00;;;0.00;;
19551;SDS011;9921;47.186;9.778;2023-07-16T01:40:08;0.00;;;0.00;;
19551;SDS011;9921;47.186;9.778;2023-07-16T01:42:36;0.10;;;0.10;;
19551;SDS011;9921;47.186;9.778;2023-07-16T01:45:03;0.10;;;0.10;;
19551;SDS011;9921;47.186;9.778;2023-07-16T01:47:34;0.00;;;0.00;;
19551;SDS011;9921;47.186;9.778;2023-07-16T01:50:11;0.00;;;0.00;;
19551;SDS011;9921;47.186;9.778;2023-07-16T01:52:38;0.00;;;0.00;;
19551;SDS011;9921;47.186;9.778;2023-07-16T01:55:05;0.00;;;0.00;;
19551;SDS011;9921;47.186;9.778;2023-07-16T01:57:32;0.00;;;0.00;;
19551;SDS011;9921;47.186;9.778;2023-07-16T01:59:59;0.00;;;0.00;;
19551;SDS011;9921;47.186;9.778;2023-07-16T02:02:26;0.00;;;0.00;;
19551;SDS011;9921;47.186;9.778;2023-07-16T02:04:54;0.08;;;0.08;;
19551;SDS011;9921;47.186;9.778;2023-07-16T02:07:21;0.00;;;0.00;;
19551;SDS011;9921;47.186;9.778;2023-07-16T02:09:49;0.10;;;0.10;;
19551;SDS011;9921;47.186;9.778;2023-07-16T02:12:16;0.00;;;0.00;;
19551;SDS011;9921;47.186;9.778;2023-07-16T02:14:43;0.03;;;0.03;;
19551;SDS011;9921;47.186;9.778;2023-07-16T02:17:10;0.10;;;0.10;;
19551;SDS011;9921;47.186;9.778;2023-07-16T02:19:37;0.00;;;0.00;;
19551;SDS011;9921;47.186;9.778;2023-07-16T02:22:05;0.10;;;0.10;;
19551;SDS011;9921;47.186;9.778;2023-07-16T02:24:32;0.00;;;0.00;;
19551;SDS011;9921;47.186;9.778;2023-07-16T02:26:59;0.00;;;0.00;;
19551;SDS011;9921;47.186;9.778;2023-07-16T02:29:25;0.00;;;0.00;;
19551;SDS011;9921;47.186;9.778;2023-07-16T02:31:52;0.00;;;0.00;;
19551;SDS011;9921;47.186;9.778;2023-07-16T02:34:19;0.00;;;0.00;;
19551;SDS011;9921;47.186;9.778;2023-07-16T02:36:46;0.00;;;0.00;;
19551;SDS011;9921;47.186;9.778;2023-07-16T02:39:14;0.00;;;0.00;;
19551;SDS011;9921;47.186;9.778;2023-07-16T02:41:41;0.00;;;0.00;;
19551;SDS011;9921;47.186;9.778;2023-07-16T02:44:08;0.00;;;0.00;;
19551;SDS011;9921;47.186;9.778;2023-07-16T02:46:35;0.00;;;0.00;;
19551;SDS011;9921;47.186;9.778;2023-07-16T02:49:02;0.00;;;0.00;;
19551;SDS011;9921;47.186;9.778;2023-07-16T02:51:30;0.00;;;0.00;;
19551;SDS011;9921;47.186;9.778;2023-07-16T02:53:56;0.00;;;0.00;;
19551;SDS011;9921;47.186;9.778;2023-07-16T02:56:25;0.00;;;0.00;;
19551;SDS011;9921;47.186;9.778;2023-07-16T02:58:51;0.00;;;0.00;;
19551;SDS011;9921;47.186;9.778;2023-07-16T03:01:18;0.00;;;0.00;;
19551;SDS011;9921;47.186;9.778;2023-07-16T03:03:45;0.00;;;0.00;;
19551;SDS011;9921;47.186;9.778;2023-07-16T03:06:12;0.03;;;0.03;;
19551;SDS011;9921;47.186;9.778;2023-07-16T03:08:39;0.00;;;0.00;;
19551;SDS011;9921;47.186;9.778;2023-07-16T03:11:06;0.00;;;0.00;;
19551;SDS011;9921;47.186;9.778;2023-07-16T03:13:34;0.00;;;0.00;;
19551;SDS011;9921;47.186;9.778;2023-07-16T03:16:01;0.10;;;0.10;;
19551;SDS011;9921;47.186;9.778;2023-07-16T03:18:28;0.00;;;0.00;;
19551;SDS011;9921;47.186;9.778;2023-07-16T03:20:56;0.00;;;0.00;;
19551;SDS011;9921;47.186;9.778;2023-07-16T03:23:23;0.00;;;0.00;;
19551;SDS011;9921;47.186;9.778;2023-07-16T03:25:50;0.00;;;0.00;;
19551;SDS011;9921;47.186;9.778;2023-07-16T03:28:17;0.00;;;0.00;;
19551;SDS011;9921;47.186;9.778;2023-07-16T03:30:46;0.00;;;0.00;;
19551;SDS011;9921;47.186;9.778;2023-07-16T03:33:13;0.00;;;0.00;;
19551;SDS011;9921;47.186;9.778;2023-07-16T03:35:42;0.00;;;0.00;;
19551;SDS011;9921;47.186;9.778;2023-07-16T03:38:09;0.00;;;0.00;;
19551;SDS011;9921;47.186;9.778;2023-07-16T03:40:36;0.00;;;0.00;;
19551;SDS011;9921;47.186;9.778;2023-07-16T03:43:03;0.05;;;0.05;;
19551;SDS011;9921;47.186;9.778;2023-07-16T03:45:30;0.00;;;0.00;;
19551;SDS011;9921;47.186;9.778;2023-07-16T03:47:59;0.00;;;0.00;;
19551;SDS011;9921;47.186;9.778;2023-07-16T03:50:25;0.00;;;0.00;;
19551;SDS011;9921;47.186;9.778;2023-07-16T03:52:52;0.00;;;0.00;;
19551;SDS011;9921;47.186;9.778;2023-07-16T03:55:19;0.00;;;0.00;;
19551;SDS011;9921;47.186;9.778;2023-07-16T03:57:46;0.10;;;0.10;;
19551;SDS011;9921;47.186;9.778;2023-07-16T04:00:13;0.00;;;0.00;;
19551;SDS011;9921;47.186;9.778;2023-07-16T04:02:40;0.00;;;0.00;;
19551;SDS011;9921;47.186;9.778;2023-07-16T04:05:09;0.00;;;0.00;;
19551;SDS011;9921;47.186;9.778;2023-07-16T04:07:36;0.00;;;0.00;;
19551;SDS011;9921;47.186;9.778;2023-07-16T04:10:03;0.00;;;0.00;;
19551;SDS011;9921;47.186;9.778;2023-07-16T04:12:30;0.00;;;0.00;;
19551;SDS011;9921;47.186;9.778;2023-07-16T04:14:58;0.00;;;0.00;;
19551;SDS011;9921;47.186;9.778;2023-07-16T04:17:25;0.00;;;0.00;;
19551;SDS011;9921;47.186;9.778;2023-07-16T04:19:52;0.00;;;0.00;;
19551;SDS011;9921;47.186;9.778;2023-07-16T04:22:20;0.03;;;0.03;;
19551;SDS011;9921;47.186;9.778;2023-07-16T04:24:47;0.00;;;0.00;;
19551;SDS011;9921;47.186;9.778;2023-07-16T04:27:14;0.00;;;0.00;;
19551;SDS011;9921;47.186;9.778;2023-07-16T04:29:40;0.00;;;0.00;;
19551;SDS011;9921;47.186;9.778;2023-07-16T04:32:07;0.00;;;0.00;;
19551;SDS011;9921;47.186;9.778;2023-07-16T04:34:34;0.10;;;0.10;;
19551;SDS011;9921;47.186;9.778;2023-07-16T04:37:01;0.10;;;0.10;;
19551;SDS011;9921;47.186;9.778;2023-07-16T04:39:29;0.00;;;0.00;;
19551;SDS011;9921;47.186;9.778;2023-07-16T04:41:56;0.00;;;0.00;;
19551;SDS011;9921;47.186;9.778;2023-07-16T04:44:23;0.00;;;0.00;;
19551;SDS011;9921;47.186;9.778;2023-07-16T04:46:50;0.00;;;0.00;;
19551;SDS011;9921;47.186;9.778;2023-07-16T04:49:16;0.03;;;0.03;;
19551;SDS011;9921;47.186;9.778;2023-07-16T04:51:43;0.00;;;0.00;;
19551;SDS011;9921;47.186;9.778;2023-07-16T04:54:10;0.00;;;0.00;;
19551;SDS011;9921;47.186;9.778;2023-07-16T04:56:38;0.00;;;0.00;;
19551;SDS011;9921;47.186;9.778;2023-07-16T04:59:05;0.00;;;0.00;;
19551;SDS011;9921;47.186;9.778;2023-07-16T05:01:32;0.00;;;0.00;;
19551;SDS011;9921;47.186;9.778;2023-07-16T05:03:59;0.10;;;0.10;;
19551;SDS011;9921;47.186;9.778;2023-07-16T05:06:26;0.00;;;0.00;;
19551;SDS011;9921;47.186;9.778;2023-07-16T05:08:53;0.00;;;0.00;;
19551;SDS011;9921;47.186;9.778;2023-07-16T05:11:20;0.05;;;0.05;;
19551;SDS011;9921;47.186;9.778;2023-07-16T05:13:48;0.00;;;0.00;;
19551;SDS011;9921;47.186;9.778;2023-07-16T05:16:15;0.00;;;0.00;;
19551;SDS011;9921;47.186;9.778;2023-07-16T05:18:41;0.00;;;0.00;;
19551;SDS011;9921;47.186;9.778;2023-07-16T05:21:08;0.00;;;0.00;;
19551;SDS011;9921;47.186;9.778;2023-07-16T05:23:35;0.00;;;0.00;;
19551;SDS011;9921;47.186;9.778;2023-07-16T05:26:02;0.00;;;0.00;;
19551;SDS011;9921;47.186;9.778;2023-07-16T05:28:29;0.00;;;0.00;;
19551;SDS011;9921;47.186;9.778;2023-07-16T05:31:00;0.00;;;0.00;;
19551;SDS011;9921;47.186;9.778;2023-07-16T05:33:28;0.00;;;0.00;;
19551;SDS011;9921;47.186;9.778;2023-07-16T05:35:55;0.00;;;0.00;;
19551;SDS011;9921;47.186;9.778;2023-07-16T05:38:21;0.00;;;0.00;;
19551;SDS011;9921;47.186;9.778;2023-07-16T05:40:48;0.00;;;0.00;;
19551;SDS011;9921;47.186;9.778;2023-07-16T05:43:16;0.00;;;0.00;;
19551;SDS011;9921;47.186;9.778;2023-07-16T05:45:42;0.00;;;0.00;;
19551;SDS011;9921;47.186;9.778;2023-07-16T05:48:11;0.00;;;0.00;;
19551;SDS011;9921;47.186;9.778;2023-07-16T05:50:37;0.00;;;0.00;;
19551;SDS011;9921;47.186;9.778;2023-07-16T05:53:04;0.00;;;0.00;;
19551;SDS011;9921;47.186;9.778;2023-07-16T05:55:31;0.10;;;0.10;;
19551;SDS011;9921;47.186;9.778;2023-07-16T05:57:58;0.10;;;0.10;;
19551;SDS011;9921;47.186;9.778;2023-07-16T06:00:25;0.00;;;0.00;;
19551;SDS011;9921;47.186;9.778;2023-07-16T06:02:52;0.00;;;0.00;;
19551;SDS011;9921;47.186;9.778;2023-07-16T06:05:20;0.10;;;0.10;;
19551;SDS011;9921;47.186;9.778;2023-07-16T06:07:47;0.00;;;0.00;;
19551;SDS011;9921;47.186;9.778;2023-07-16T06:10:14;0.00;;;0.00;;
19551;SDS011;9921;47.186;9.778;2023-07-16T06:12:41;0.00;;;0.00;;
19551;SDS011;9921;47.186;9.778;2023-07-16T06:15:08;0.00;;;0.00;;
19551;SDS011;9921;47.186;9.778;2023-07-16T06:17:35;0.00;;;0.00;;
19551;SDS011;9921;47.186;9.778;2023-07-16T06:20:02;0.00;;;0.00;;
19551;SDS011;9921;47.186;9.778;2023-07-16T06:22:32;0.10;;;0.10;;
19551;SDS011;9921;47.186;9.778;2023-07-16T06:24:59;0.10;;;0.10;;
19551;SDS011;9921;47.186;9.778;2023-07-16T06:27:26;0.00;;;0.00;;
19551;SDS011;9921;47.186;9.778;2023-07-16T06:29:53;0.00;;;0.00;;
19551;SDS011;9921;47.186;9.778;2023-07-16T06:32:20;0.00;;;0.00;;
19551;SDS011;9921;47.186;9.778;2023-07-16T06:34:47;0.00;;;0.00;;
19551;SDS011;9921;47.186;9.778;2023-07-16T06:37:14;0.00;;;0.00;;
19551;SDS011;9921;47.186;9.778;2023-07-16T06:39:42;0.00;;;0.00;;
19551;SDS011;9921;47.186;9.778;2023-07-16T06:42:09;0.00;;;0.00;;
19551;SDS011;9921;47.186;9.778;2023-07-16T06:44:35;0.00;;;0.00;;
19551;SDS011;9921;47.186;9.778;2023-07-16T06:47:02;0.00;;;0.00;;
19551;SDS011;9921;47.186;9.778;2023-07-16T06:49:30;0.00;;;0.00;;
19551;SDS011;9921;47.186;9.778;2023-07-16T06:51:57;0.00;;;0.00;;
19551;SDS011;9921;47.186;9.778;2023-07-16T06:54:24;0.00;;;0.00;;
19551;SDS011;9921;47.186;9.778;2023-07-16T06:56:52;0.00;;;0.00;;
19551;SDS011;9921;47.186;9.778;2023-07-16T06:59:19;0.00;;;0.00;;
19551;SDS011;9921;47.186;9.778;2023-07-16T07:01:46;0.00;;;0.00;;
19551;SDS011;9921;47.186;9.778;2023-07-16T07:04:12;0.00;;;0.00;;
19551;SDS011;9921;47.186;9.778;2023-07-16T07:06:39;0.10;;;0.10;;
19551;SDS011;9921;47.186;9.778;2023-07-16T07:09:06;0.00;;;0.00;;
19551;SDS011;9921;47.186;9.778;2023-07-16T07:11:33;0.00;;;0.00;;
19551;SDS011;9921;47.186;9.778;2023-07-16T07:14:01;0.00;;;0.00;;
19551;SDS011;9921;47.186;9.778;2023-07-16T07:16:28;0.00;;;0.00;;
19551;SDS011;9921;47.186;9.778;2023-07-16T07:18:56;0.10;;;0.10;;
19551;SDS011;9921;47.186;9.778;2023-07-16T07:21:23;0.05;;;0.05;;
19551;SDS011;9921;47.186;9.778;2023-07-16T07:23:49;0.00;;;0.00;;
19551;SDS011;9921;47.186;9.778;2023-07-16T07:26:16;0.00;;;0.00;;
19551;SDS011;9921;47.186;9.778;2023-07-16T07:28:43;0.00;;;0.00;;
19551;SDS011;9921;47.186;9.778;2023-07-16T07:31:11;0.00;;;0.00;;
19551;SDS011;9921;47.186;9.778;2023-07-16T07:33:38;0.00;;;0.00;;
19551;SDS011;9921;47.186;9.778;2023-07-16T07:36:05;0.00;;;0.00;;
19551;SDS011;9921;47.186;9.778;2023-07-16T07:38:32;0.00;;;0.00;;
19551;SDS011;9921;47.186;9.778;2023-07-16T07:40:59;0.00;;;0.00;;
19551;SDS011;9921;47.186;9.778;2023-07-16T07:43:26;0.00;;;0.00;;
19551;SDS011;9921;47.186;9.778;2023-07-16T07:45:53;0.00;;;0.00;;
19551;SDS011;9921;47.186;9.778;2023-07-16T07:48:21;0.00;;;0.00;;
19551;SDS011;9921;47.186;9.778;2023-07-16T07:50:48;0.10;;;0.10;;
19551;SDS011;9921;47.186;9.778;2023-07-16T07:53:15;0.10;;;0.10;;
19551;SDS011;9921;47.186;9.778;2023-07-16T07:55:43;0.00;;;0.00;;
19551;SDS011;9921;47.186;9.778;2023-07-16T07:58:11;0.10;;;0.10;;
19551;SDS011;9921;47.186;9.778;2023-07-16T08:00:38;0.10;;;0.10;;
19551;SDS011;9921;47.186;9.778;2023-07-16T08:03:05;0.00;;;0.00;;
19551;SDS011;9921;47.186;9.778;2023-07-16T08:05:33;0.00;;;0.00;;
19551;SDS011;9921;47.186;9.778;2023-07-16T08:08:00;0.00;;;0.00;;
19551;SDS011;9921;47.186;9.778;2023-07-16T08:10:27;0.10;;;0.10;;
19551;SDS011;9921;47.186;9.778;2023-07-16T08:12:54;0.10;;;0.10;;
19551;SDS011;9921;47.186;9.778;2023-07-16T08:15:20;0.00;;;0.00;;
19551;SDS011;9921;47.186;9.778;2023-07-16T08:17:47;0.00;;;0.00;;
19551;SDS011;9921;47.186;9.778;2023-07-16T08:20:14;0.00;;;0.00;;
19551;SDS011;9921;47.186;9.778;2023-07-16T08:22:43;0.00;;;0.00;;
19551;SDS011;9921;47.186;9.778;2023-07-16T08:25:09;0.10;;;0.10;;
19551;SDS011;9921;47.186;9.778;2023-07-16T08:27:36;0.00;;;0.00;;
19551;SDS011;9921;47.186;9.778;2023-07-16T08:30:03;0.08;;;0.08;;
19551;SDS011;9921;47.186;9.778;2023-07-16T08:32:31;0.10;;;0.10;;
19551;SDS011;9921;47.186;9.778;2023-07-16T08:34:58;0.00;;;0.00;;
19551;SDS011;9921;47.186;9.778;2023-07-16T08:37:25;0.10;;;0.10;;
19551;SDS011;9921;47.186;9.778;2023-07-16T08:39:53;0.10;;;0.10;;
19551;SDS011;9921;47.186;9.778;2023-07-16T08:42:20;0.00;;;0.00;;
19551;SDS011;9921;47.186;9.778;2023-07-16T08:44:48;0.10;;;0.10;;
19551;SDS011;9921;47.186;9.778;2023-07-16T08:47:15;0.10;;;0.10;;
19551;SDS011;9921;47.186;9.778;2023-07-16T08:49:42;0.08;;;0.08;;
19551;SDS011;9921;47.186;9.778;2023-07-16T08:52:14;0.10;;;0.10;;
19551;SDS011;9921;47.186;9.778;2023-07-16T08:54:42;0.10;;;0.10;;
19551;SDS011;9921;47.186;9.778;2023-07-16T08:57:11;0.10;;;0.10;;
19551;SDS011;9921;47.186;9.778;2023-07-16T08:59:39;0.10;;;0.10;;
19551;SDS011;9921;47.186;9.778;2023-07-16T09:02:06;0.10;;;0.10;;
19551;SDS011;9921;47.186;9.778;2023-07-16T09:04:33;0.10;;;0.10;;
19551;SDS011;9921;47.186;9.778;2023-07-16T09:07:00;0.10;;;0.10;;
19551;SDS011;9921;47.186;9.778;2023-07-16T09:09:27;0.10;;;0.10;;
19551;SDS011;9921;47.186;9.778;2023-07-16T09:11:54;0.10;;;0.10;;
19551;SDS011;9921;47.186;9.778;2023-07-16T09:14:23;0.10;;;0.10;;
19551;SDS011;9921;47.186;9.778;2023-07-16T09:16:50;0.10;;;0.10;;
19551;SDS011;9921;47.186;9.778;2023-07-16T09:19:17;0.10;;;0.10;;
19551;SDS011;9921;47.186;9.778;2023-07-16T09:21:46;0.08;;;0.08;;
19551;SDS011;9921;47.186;9.778;2023-07-16T09:24:13;0.00;;;0.00;;
19551;SDS011;9921;47.186;9.778;2023-07-16T09:26:47;0.10;;;0.10;;
19551;SDS011;9921;47.186;9.778;2023-07-16T09:29:15;0.10;;;0.10;;
19551;SDS011;9921;47.186;9.778;2023-07-16T09:31:54;0.10;;;0.10;;
19551;SDS011;9921;47.186;9.778;2023-07-16T09:34:21;0.10;;;0.10;;
19551;SDS011;9921;47.186;9.778;2023-07-16T09:36:49;0.10;;;0.10;;
19551;SDS011;9921;47.186;9.778;2023-07-16T09:39:16;0.03;;;0.03;;
19551;SDS011;9921;47.186;9.778;2023-07-16T09:41:44;0.03;;;0.03;;
19551;SDS011;9921;47.186;9.778;2023-07-16T09:44:11;0.10;;;0.10;;
19551;SDS011;9921;47.186;9.778;2023-07-16T09:46:39;0.10;;;0.10;;
19551;SDS011;9921;47.186;9.778;2023-07-16T09:49:07;0.10;;;0.10;;
19551;SDS011;9921;47.186;9.778;2023-07-16T09:51:35;0.13;;;0.13;;
19551;SDS011;9921;47.186;9.778;2023-07-16T09:54:03;0.10;;;0.10;;
19551;SDS011;9921;47.186;9.778;2023-07-16T09:56:31;0.03;;;0.03;;
19551;SDS011;9921;47.186;9.778;2023-07-16T09:59:01;0.10;;;0.10;;
19551;SDS011;9921;47.186;9.778;2023-07-16T10:01:31;0.00;;;0.00;;
19551;SDS011;9921;47.186;9.778;2023-07-16T10:04:10;0.10;;;0.10;;
19551;SDS011;9921;47.186;9.778;2023-07-16T10:06:47;0.10;;;0.10;;
19551;SDS011;9921;47.186;9.778;2023-07-16T10:12:13;0.10;;;0.10;;
19551;SDS011;9921;47.186;9.778;2023-07-16T10:14:42;0.10;;;0.10;;
19551;SDS011;9921;47.186;9.778;2023-07-16T10:17:14;0.10;;;0.10;;
19551;SDS011;9921;47.186;9.778;2023-07-16T10:19:54;0.10;;;0.10;;
19551;SDS011;9921;47.186;9.778;2023-07-16T10:22:35;0.10;;;0.10;;
19551;SDS011;9921;47.186;9.778;2023-07-16T10:25:03;0.10;;;0.10;;
19551;SDS011;9921;47.186;9.778;2023-07-16T10:27:34;0.10;;;0.10;;
19551;SDS011;9921;47.186;9.778;2023-07-16T10:30:02;0.10;;;0.10;;
19551;SDS011;9921;47.186;9.778;2023-07-16T10:32:31;0.10;;;0.10;;
19551;SDS011;9921;47.186;9.778;2023-07-16T10:35:00;0.10;;;0.10;;
19551;SDS011;9921;47.186;9.778;2023-07-16T10:37:27;0.10;;;0.10;;
19551;SDS011;9921;47.186;9.778;2023-07-16T10:39:55;0.10;;;0.10;;
19551;SDS011;9921;47.186;9.778;2023-07-16T10:42:24;0.00;;;0.00;;
19551;SDS011;9921;47.186;9.778;2023-07-16T10:44:52;0.10;;;0.10;;
19551;SDS011;9921;47.186;9.778;2023-07-16T10:47:20;0.10;;;0.10;;
19551;SDS011;9921;47.186;9.778;2023-07-16T10:49:48;0.00;;;0.00;;
19551;SDS011;9921;47.186;9.778;2023-07-16T10:52:18;0.10;;;0.10;;
19551;SDS011;9921;47.186;9.778;2023-07-16T10:54:46;0.10;;;0.10;;
19551;SDS011;9921;47.186;9.778;2023-07-16T10:57:13;0.10;;;0.10;;
19551;SDS011;9921;47.186;9.778;2023-07-16T10:59:42;0.10;;;0.10;;
19551;SDS011;9921;47.186;9.778;2023-07-16T11:02:10;0.05;;;0.05;;
19551;SDS011;9921;47.186;9.778;2023-07-16T11:04:38;0.10;;;0.10;;
19551;SDS011;9921;47.186;9.778;2023-07-16T11:07:06;0.10;;;0.10;;
19551;SDS011;9921;47.186;9.778;2023-07-16T11:09:39;0.10;;;0.10;;
19551;SDS011;9921;47.186;9.778;2023-07-16T11:12:07;0.10;;;0.10;;
19551;SDS011;9921;47.186;9.778;2023-07-16T11:14:35;0.20;;;0.20;;
19551;SDS011;9921;47.186;9.778;2023-07-16T11:17:05;0.10;;;0.10;;
19551;SDS011;9921;47.186;9.778;2023-07-16T11:19:34;0.10;;;0.10;;
19551;SDS011;9921;47.186;9.778;2023-07-16T11:22:01;0.10;;;0.10;;
19551;SDS011;9921;47.186;9.778;2023-07-16T11:24:36;0.10;;;0.10;;
19551;SDS011;9921;47.186;9.778;2023-07-16T11:27:05;0.10;;;0.10;;
19551;SDS011;9921;47.186;9.778;2023-07-16T11:29:38;0.10;;;0.10;;
19551;SDS011;9921;47.186;9.778;2023-07-16T11:32:07;0.03;;;0.03;;
19551;SDS011;9921;47.186;9.778;2023-07-16T11:34:34;0.10;;;0.10;;
19551;SDS011;9921;47.186;9.778;2023-07-16T11:37:08;0.10;;;0.10;;
19551;SDS011;9921;47.186;9.778;2023-07-16T11:39:37;0.10;;;0.10;;
19551;SDS011;9921;47.186;9.778;2023-07-16T11:42:04;0.05;;;0.05;;
19551;SDS011;9921;47.186;9.778;2023-07-16T11:44:35;0.10;;;0.10;;
19551;SDS011;9921;47.186;9.778;2023-07-16T11:47:02;0.10;;;0.10;;
19551;SDS011;9921;47.186;9.778;2023-07-16T11:49:29;0.10;;;0.10;;
19551;SDS011;9921;47.186;9.778;2023-07-16T11:51:57;0.10;;;0.10;;
19551;SDS011;9921;47.186;9.778;2023-07-16T11:54:24;0.10;;;0.10;;
19551;SDS011;9921;47.186;9.778;2023-07-16T11:56:53;0.10;;;0.10;;
19551;SDS011;9921;47.186;9.778;2023-07-16T11:59:20;0.20;;;0.20;;
19551;SDS011;9921;47.186;9.778;2023-07-16T12:01:47;0.10;;;0.10;;
19551;SDS011;9921;47.186;9.778;2023-07-16T12:04:15;0.10;;;0.10;;
19551;SDS011;9921;47.186;9.778;2023-07-16T12:06:42;0.10;;;0.10;;
19551;SDS011;9921;47.186;9.778;2023-07-16T12:09:09;0.10;;;0.10;;
19551;SDS011;9921;47.186;9.778;2023-07-16T12:11:36;0.10;;;0.10;;
19551;SDS011;9921;47.186;9.778;2023-07-16T12:14:05;0.10;;;0.10;;
19551;SDS011;9921;47.186;9.778;2023-07-16T12:16:32;0.10;;;0.10;;
19551;SDS011;9921;47.186;9.778;2023-07-16T12:18:59;0.13;;;0.13;;
19551;SDS011;9921;47.186;9.778;2023-07-16T12:21:26;0.10;;;0.10;;
19551;SDS011;9921;47.186;9.778;2023-07-16T12:23:53;0.10;;;0.10;;
19551;SDS011;9921;47.186;9.778;2023-07-16T12:26:19;0.10;;;0.10;;
19551;SDS011;9921;47.186;9.778;2023-07-16T12:28:46;0.10;;;0.10;;
19551;SDS011;9921;47.186;9.778;2023-07-16T12:31:15;0.10;;;0.10;;
19551;SDS011;9921;47.186;9.778;2023-07-16T12:33:42;0.20;;;0.20;;
19551;SDS011;9921;47.186;9.778;2023-07-16T12:36:09;0.10;;;0.10;;
19551;SDS011;9921;47.186;9.778;2023-07-16T12:38:36;0.10;;;0.10;;
19551;SDS011;9921;47.186;9.778;2023-07-16T12:41:03;0.10;;;0.10;;
19551;SDS011;9921;47.186;9.778;2023-07-16T12:43:30;0.10;;;0.10;;
19551;SDS011;9921;47.186;9.778;2023-07-16T12:45:59;0.10;;;0.10;;
19551;SDS011;9921;47.186;9.778;2023-07-16T12:48:27;0.10;;;0.10;;
19551;SDS011;9921;47.186;9.778;2023-07-16T12:50:54;0.10;;;0.10;;
19551;SDS011;9921;47.186;9.778;2023-07-16T12:53:21;0.10;;;0.10;;
19551;SDS011;9921;47.186;9.778;2023-07-16T12:55:48;0.10;;;0.10;;
19551;SDS011;9921;47.186;9.778;2023-07-16T12:58:15;0.10;;;0.10;;
19551;SDS011;9921;47.186;9.778;2023-07-16T13:00:42;0.10;;;0.10;;
19551;SDS011;9921;47.186;9.778;2023-07-16T13:03:09;0.20;;;0.20;;
19551;SDS011;9921;47.186;9.778;2023-07-16T13:05:38;0.10;;;0.10;;
19551;SDS011;9921;47.186;9.778;2023-07-16T13:08:04;0.10;;;0.10;;
19551;SDS011;9921;47.186;9.778;2023-07-16T13:10:31;0.10;;;0.10;;
19551;SDS011;9921;47.186;9.778;2023-07-16T13:12:58;0.13;;;0.13;;
19551;SDS011;9921;47.186;9.778;2023-07-16T13:15:25;0.10;;;0.10;;
19551;SDS011;9921;47.186;9.778;2023-07-16T13:17:52;0.10;;;0.10;;
19551;SDS011;9921;47.186;9.778;2023-07-16T13:20:20;0.10;;;0.10;;
19551;SDS011;9921;47.186;9.778;2023-07-16T13:22:50;0.10;;;0.10;;
19551;SDS011;9921;47.186;9.778;2023-07-16T13:25:17;0.10;;;0.10;;
19551;SDS011;9921;47.186;9.778;2023-07-16T13:27:44;0.10;;;0.10;;
19551;SDS011;9921;47.186;9.778;2023-07-16T13:30:13;0.10;;;0.10;;
19551;SDS011;9921;47.186;9.778;2023-07-16T13:32:39;0.10;;;0.10;;
19551;SDS011;9921;47.186;9.778;2023-07-16T13:35:07;0.10;;;0.10;;
19551;SDS011;9921;47.186;9.778;2023-07-16T13:37:34;0.20;;;0.20;;
19551;SDS011;9921;47.186;9.778;2023-07-16T13:40:02;0.10;;;0.10;;
19551;SDS011;9921;47.186;9.778;2023-07-16T13:42:30;0.15;;;0.15;;
19551;SDS011;9921;47.186;9.778;2023-07-16T13:44:57;0.10;;;0.10;;
19551;SDS011;9921;47.186;9.778;2023-07-16T13:47:24;0.10;;;0.10;;
19551;SDS011;9921;47.186;9.778;2023-07-16T13:49:50;0.10;;;0.10;;
19551;SDS011;9921;47.186;9.778;2023-07-16T13:52:17;0.10;;;0.10;;
19551;SDS011;9921;47.186;9.778;2023-07-16T13:54:44;0.10;;;0.10;;
19551;SDS011;9921;47.186;9.778;2023-07-16T13:57:12;0.10;;;0.10;;
19551;SDS011;9921;47.186;9.778;2023-07-16T13:59:39;0.10;;;0.10;;
19551;SDS011;9921;47.186;9.778;2023-07-16T14:02:06;0.20;;;0.20;;
19551;SDS011;9921;47.186;9.778;2023-07-16T14:04:33;0.10;;;0.10;;
19551;SDS011;9921;47.186;9.778;2023-07-16T14:07:00;0.10;;;0.10;;
19551;SDS011;9921;47.186;9.778;2023-07-16T14:09:27;0.10;;;0.10;;
19551;SDS011;9921;47.186;9.778;2023-07-16T14:11:54;0.10;;;0.10;;
19551;SDS011;9921;47.186;9.778;2023-07-16T14:14:22;0.13;;;0.13;;
19551;SDS011;9921;47.186;9.778;2023-07-16T14:16:49;0.10;;;0.10;;
19551;SDS011;9921;47.186;9.778;2023-07-16T14:19:17;0.10;;;0.10;;
19551;SDS011;9921;47.186;9.778;2023-07-16T14:21:44;0.10;;;0.10;;
19551;SDS011;9921;47.186;9.778;2023-07-16T14:24:11;0.10;;;0.10;;
19551;SDS011;9921;47.186;9.778;2023-07-16T14:26:38;0.10;;;0.10;;
19551;SDS011;9921;47.186;9.778;2023-07-16T14:29:05;0.10;;;0.10;;
19551;SDS011;9921;47.186;9.778;2023-07-16T14:31:33;0.10;;;0.10;;
19551;SDS011;9921;47.186;9.778;2023-07-16T14:34:00;0.10;;;0.10;;
19551;SDS011;9921;47.186;9.778;2023-07-16T14:36:27;0.10;;;0.10;;
19551;SDS011;9921;47.186;9.778;2023-07-16T14:38:54;0.10;;;0.10;;
19551;SDS011;9921;47.186;9.778;2023-07-16T14:41:21;0.10;;;0.10;;
19551;SDS011;9921;47.186;9.778;2023-07-16T14:43:48;0.10;;;0.10;;
19551;SDS011;9921;47.186;9.778;2023-07-16T14:46:15;0.20;;;0.20;;
19551;SDS011;9921;47.186;9.778;2023-07-16T14:48:43;0.10;;;0.10;;
19551;SDS011;9921;47.186;9.778;2023-07-16T14:51:10;0.10;;;0.10;;
19551;SDS011;9921;47.186;9.778;2023-07-16T14:53:38;0.10;;;0.10;;
19551;SDS011;9921;47.186;9.778;2023-07-16T14:56:05;0.10;;;0.10;;
19551;SDS011;9921;47.186;9.778;2023-07-16T14:58:32;0.10;;;0.10;;
19551;SDS011;9921;47.186;9.778;2023-07-16T15:01:01;0.10;;;0.10;;
19551;SDS011;9921;47.186;9.778;2023-07-16T15:03:32;0.10;;;0.10;;
19551;SDS011;9921;47.186;9.778;2023-07-16T15:06:01;0.10;;;0.10;;